Academy, New Jersey
Current Conditions -  °F | °C
As of 5:51 PM on Sunday 21 Dec 2014 (Local Time) from KEWR Reporting Station
Overcast Overcast  
Wind Chill: -1°   Ceiling: 3100
Heat Index:   Visibility: 10mi
Dew Point: -3°   Wind: 8mph
Humidity: 70%   Direction: 360°N
Pressure: 30.31"   Gusts: NA
Location:  40.7334°N, 74.1735°W
Report Text: KEWR 212251Z 36007KT 10SM FEW022 OVC031 02/M03 A3031 RMK AO2 SLP263 T00221028
Loading
Personal Weather Stations






























Interactive Weather Map New forecast layout! Learn more

10-Day Weather Forecast

Advertisements
Track Severe Weather on mobile